Time;durP1;ratioP1;P1;durP2;ratioP2;P2;SDS_P1;SDS_P2;PMS_P1;PMS_P2;Temp;Humidity;BMP_temperature;BMP_pressure;BME280_temperature;BME280_humidity;BME280_pressure;Samples;Min_cycle;Max_cycle;Signal;HPM_P1;HPM_P2
2024/02/05 00:00:10;;;;;;;61.05;12.15;;;11.10;99.90;;;11.38;100.00;101904.94;4992799;28;20066;-70
2024/02/05 00:02:41;;;;;;;54.30;12.57;;;11.20;99.90;;;11.34;100.00;101916.38;4993097;28;20050;-70
2024/02/05 00:05:10;;;;;;;55.08;12.05;;;11.20;99.90;;;11.36;100.00;101915.50;4993011;28;20097;-70
2024/02/05 00:07:40;;;;;;;73.63;14.15;;;11.20;99.90;;;11.44;100.00;101924.41;4993231;28;20050;-70
2024/02/05 00:10:10;;;;;;;60.92;12.85;;;11.20;99.90;;;11.28;100.00;101890.72;4992446;28;20043;-70
2024/02/05 00:12:39;;;;;;;;;;;11.30;99.90;;;11.37;100.00;101919.94;4993198;28;20041;-70
2024/02/05 00:15:10;;;;;;;59.55;12.50;;;11.30;99.90;;;11.38;100.00;101932.28;4992187;28;20375;-70
2024/02/05 00:17:39;;;;;;;55.55;13.57;;;11.20;99.90;;;11.32;100.00;101929.63;4992745;28;20078;-70
2024/02/05 00:20:09;;;;;;;56.42;13.15;;;11.20;99.90;;;11.46;100.00;101937.66;4992566;28;20105;-70
2024/02/05 00:22:38;;;;;;;60.00;13.02;;;11.20;99.90;;;11.36;100.00;101928.75;4992289;28;20052;-70
2024/02/05 00:25:08;;;;;;;59.90;11.90;;;11.20;99.90;;;11.41;100.00;101944.69;4990944;28;20053;-70
2024/02/05 00:27:37;;;;;;;57.47;12.05;;;11.20;99.90;;;11.42;100.00;101942.03;4991959;28;20435;-70
2024/02/05 00:30:10;;;;;;;61.40;14.32;;;11.20;99.90;;;11.06;100.00;101871.94;4992100;28;20122;-70
2024/02/05 00:32:39;;;;;;;58.80;13.45;;;11.30;99.90;;;11.41;100.00;101948.22;4992840;28;20515;-70
2024/02/05 00:35:08;;;;;;;60.05;12.57;;;11.20;99.90;;;11.38;100.00;101942.88;4992194;28;20046;-70
2024/02/05 00:37:37;;;;;;;73.03;13.35;;;11.20;99.90;;;11.34;100.00;101954.31;4991435;28;20109;-70
2024/02/05 00:40:08;;;;;;;53.80;12.73;;;11.20;99.90;;;11.40;100.00;101948.22;4992117;28;20061;-70
2024/02/05 00:42:36;;;;;;;61.45;12.40;;;11.20;99.90;;;11.39;100.00;101947.34;4992420;28;20093;-70
2024/02/05 00:45:07;;;;;;;57.17;12.82;;;11.20;99.90;;;11.41;100.00;101942.94;4991761;28;20129;-70
2024/02/05 00:47:37;;;;;;;62.60;13.63;;;11.20;99.90;;;11.45;100.00;101952.69;4992373;28;20483;-70
2024/02/05 00:50:06;;;;;;;58.83;11.85;;;11.20;99.90;;;11.40;100.00;101958.81;4991907;28;20101;-70
2024/02/05 00:52:35;;;;;;;59.83;13.05;;;11.20;99.90;;;11.38;100.00;101956.13;4991779;28;20540;-70
2024/02/05 00:55:04;;;;;;;63.97;13.68;;;11.20;99.90;;;11.39;100.00;101936.75;4991753;28;20503;-70
2024/02/05 00:57:32;;;;;;;53.03;12.13;;;11.20;99.90;;;11.52;100.00;101954.50;4991487;28;20046;-70
2024/02/05 01:00:01;;;;;;;53.67;11.77;;;11.30;99.90;;;11.53;100.00;101940.41;4991644;28;20054;-70
2024/02/05 01:02:29;;;;;;;51.40;12.25;;;11.30;99.90;;;11.44;100.00;101924.41;4990516;28;20049;-70
2024/02/05 01:04:59;;;;;;;71.72;13.75;;;11.30;99.90;;;11.43;100.00;101930.59;4991599;28;20035;-70
2024/02/05 01:07:29;;;;;;;65.07;13.73;;;11.30;99.90;;;11.42;100.00;101912.91;4991842;28;20054;-70
2024/02/05 01:09:57;;;;;;;62.20;11.98;;;11.30;99.90;;;11.29;100.00;101905.72;4990484;28;20423;-70
2024/02/05 01:12:26;;;;;;;61.78;13.07;;;11.20;99.90;;;11.14;100.00;101908.25;4991735;28;20117;-70
2024/02/05 01:14:54;;;;;;;56.30;12.05;;;11.00;99.90;;;11.29;100.00;101926.91;4990578;28;20050;-69
2024/02/05 01:17:22;;;;;;;63.45;12.88;;;11.10;99.90;;;11.29;100.00;101920.72;4991702;28;20049;-70
2024/02/05 01:19:51;;;;;;;54.65;12.20;;;11.10;99.90;;;11.29;100.00;101918.97;4992641;28;20472;-70
2024/02/05 01:22:21;;;;;;;58.50;13.70;;;11.10;99.90;;;11.24;100.00;101911.88;4992654;28;20498;-70
2024/02/05 01:24:49;;;;;;;66.25;13.57;;;11.10;99.90;;;11.28;100.00;101914.56;4993083;28;20377;-70
2024/02/05 01:27:17;;;;;;;59.95;13.15;;;11.00;99.90;;;11.23;100.00;101924.22;4993044;28;20507;-70
2024/02/05 01:29:46;;;;;;;57.08;12.57;;;11.00;99.90;;;11.26;100.00;101926.91;4993023;28;20057;-70
2024/02/05 01:32:15;;;;;;;53.42;12.52;;;11.10;99.90;;;11.30;100.00;101931.38;4991029;28;20149;-70
2024/02/05 01:34:43;;;;;;;59.50;13.75;;;11.00;99.90;;;11.32;100.00;101916.38;4992935;28;20049;-70
2024/02/05 01:37:12;;;;;;;51.97;12.57;;;11.10;99.90;;;11.25;100.00;101921.56;4993096;28;20042;-70
2024/02/05 01:39:42;;;;;;;62.00;13.15;;;11.10;99.90;;;11.29;100.00;101915.44;4992791;28;20504;-70
2024/02/05 01:42:11;;;;;;;55.10;11.43;;;11.10;99.90;;;11.26;100.00;101926.91;4992999;28;20038;-70
2024/02/05 01:44:39;;;;;;;57.75;11.20;;;11.00;99.90;;;11.25;100.00;101922.47;4991653;28;20408;-70
2024/02/05 01:47:08;;;;;;;57.03;12.98;;;11.10;99.90;;;11.23;100.00;101918.00;4992783;28;20068;-69
2024/02/05 01:49:37;;;;;;;65.43;12.68;;;11.10;99.90;;;11.08;100.00;101916.13;4992595;28;20038;-70
2024/02/05 01:52:11;;;;;;;57.22;12.20;;;11.00;99.90;;;11.31;100.00;101916.34;4992944;28;20054;-70
2024/02/05 01:54:42;;;;;;;55.47;13.63;;;11.10;99.90;;;11.26;100.00;101921.59;4992677;28;20514;-70
2024/02/05 01:57:11;;;;;;;58.35;12.48;;;11.10;99.90;;;11.25;100.00;101943.66;4992578;28;20042;-70
2024/02/05 01:59:40;;;;;;;54.75;13.45;;;11.00;99.90;;;11.20;100.00;101916.25;4992845;28;20042;-71
2024/02/05 02:02:10;;;;;;;63.58;13.82;;;11.00;99.90;;;11.19;100.00;101908.28;4992422;28;20459;-70
2024/02/05 02:04:39;;;;;;;56.03;12.55;;;11.00;99.90;;;11.19;100.00;101911.81;4992552;28;20407;-71
2024/02/05 02:07:10;;;;;;;54.67;12.57;;;11.00;99.90;;;11.16;100.00;101901.19;4992780;28;20050;-70
2024/02/05 02:09:38;;;;;;;56.80;11.52;;;11.00;99.90;;;11.23;100.00;101921.56;4993119;28;20046;-70
2024/02/05 02:12:09;;;;;;;62.47;13.70;;;11.00;99.90;;;11.14;100.00;101897.66;4992481;28;20480;-71
2024/02/05 02:14:37;;;;;;;63.88;12.80;;;11.00;99.90;;;11.16;100.00;101913.53;4992502;28;20042;-71
2024/02/05 02:17:06;;;;;;;65.55;13.23;;;10.90;99.90;;;11.20;100.00;101910.06;4992370;28;20050;-71
2024/02/05 02:19:43;;;;;;;63.28;12.90;;;11.00;99.90;;;11.18;100.00;101909.16;4992332;28;20049;-71
2024/02/05 02:22:22;;;;;;;55.50;12.00;;;11.00;99.90;;;11.09;100.00;101944.34;4993011;28;20053;-71
2024/02/05 02:24:52;;;;;;;59.55;13.27;;;10.90;99.90;;;11.08;100.00;101917.88;4992351;28;20034;-70
2024/02/05 02:27:21;;;;;;;69.05;13.43;;;10.90;99.90;;;11.11;100.00;101910.84;4992658;28;20046;-71
2024/02/05 02:29:51;;;;;;;61.58;13.52;;;10.90;99.90;;;11.12;100.00;101909.97;4992218;28;20050;-71
2024/02/05 02:32:33;;;;;;;75.15;14.55;;;10.90;99.90;;;11.06;100.00;101917.88;4992374;28;20038;-71
2024/02/05 02:35:10;;;;;;;77.13;13.75;;;10.90;99.90;;;11.12;100.00;101931.16;4992620;28;20038;-71
2024/02/05 02:37:46;;;;;;;56.90;13.77;;;10.90;99.90;;;11.08;100.00;101926.72;4991031;28;20554;-71
2024/02/05 02:40:18;;;;;;;68.82;13.50;;;10.90;99.90;;;11.09;100.00;101917.00;4991995;28;20058;-71
2024/02/05 02:42:53;;;;;;;64.30;13.60;;;10.90;99.90;;;10.97;100.00;101907.19;4992256;28;20050;-71
2024/02/05 02:45:21;;;;;;;63.83;14.43;;;10.80;99.90;;;11.00;100.00;101919.53;4992504;28;20050;-71
2024/02/05 02:47:50;;;;;;;56.28;14.05;;;10.80;99.90;;;11.00;100.00;101899.25;4991652;28;20054;-71
2024/02/05 02:50:18;;;;;;;60.30;13.00;;;10.80;99.90;;;10.97;100.00;101911.59;4992780;28;20061;-70
2024/02/05 02:52:47;;;;;;;65.30;14.18;;;10.80;99.90;;;11.01;100.00;101916.94;4992004;28;20523;-70
2024/02/05 02:55:17;;;;;;;58.92;13.15;;;10.80;99.90;;;10.92;100.00;101895.66;4991883;28;20467;-70
2024/02/05 02:57:45;;;;;;;63.60;13.13;;;10.80;99.90;;;10.94;100.00;101920.38;4992943;28;20141;-71
2024/02/05 03:00:16;;;;;;;57.08;12.93;;;10.70;99.90;;;11.00;100.00;101909.84;4992758;28;20043;-71
2024/02/05 03:02:44;;;;;;;59.05;13.77;;;10.80;99.90;;;11.11;100.00;101924.06;4996416;28;20046;-71
2024/02/05 03:05:13;;;;;;;65.82;13.13;;;10.80;99.90;;;11.08;100.00;101908.19;4996410;28;20097;-71
2024/02/05 03:07:41;;;;;;;62.50;12.63;;;10.80;99.90;;;11.03;100.00;101906.34;4996160;28;20117;-71
2024/02/05 03:10:10;;;;;;;56.58;12.25;;;10.80;99.90;;;11.12;100.00;101915.28;4995120;28;20054;-70
2024/02/05 03:12:40;;;;;;;55.00;12.23;;;10.90;99.90;;;11.11;100.00;101920.56;4995985;28;20089;-71
2024/02/05 03:15:09;;;;;;;59.63;12.50;;;10.90;99.90;;;11.20;100.00;101912.72;4996005;28;20137;-70
2024/02/05 03:17:37;;;;;;;55.10;13.98;;;10.90;99.90;;;11.20;100.00;101913.59;4995910;28;20309;-71
2024/02/05 03:20:08;;;;;;;63.83;12.95;;;11.00;99.90;;;11.04;100.00;101906.38;4994989;28;20120;-70
2024/02/05 03:22:36;;;;;;;61.95;14.73;;;10.80;99.90;;;11.06;100.00;101901.09;4995965;28;20043;-70
2024/02/05 03:25:06;;;;;;;63.58;13.63;;;10.80;99.90;;;10.95;100.00;101892.16;4996126;28;20148;-71
2024/02/05 03:27:34;;;;;;;65.78;13.23;;;10.80;99.90;;;10.97;100.00;101893.06;4995744;28;20407;-71
2024/02/05 03:30:04;;;;;;;63.80;14.65;;;10.70;99.90;;;10.30;100.00;101777.69;4995757;28;20050;-71
2024/02/05 03:32:33;;;;;;;63.90;12.93;;;10.70;99.90;;;10.85;100.00;101883.22;4996273;28;20045;-71
2024/02/05 03:35:01;;;;;;;59.15;13.13;;;10.60;99.90;;;10.90;100.00;101886.78;4994876;28;20487;-71
2024/02/05 03:37:30;;;;;;;61.67;13.70;;;10.70;99.90;;;10.78;100.00;101881.41;4994490;28;20050;-71
2024/02/05 03:39:58;;;;;;;59.60;13.45;;;10.60;99.90;;;10.80;100.00;101885.81;4995852;28;20072;-70
2024/02/05 03:42:26;;;;;;;65.32;14.40;;;10.60;99.90;;;10.84;100.00;101879.69;4995523;28;20074;-71
2024/02/05 03:44:55;;;;;;;59.08;13.27;;;10.60;99.90;;;10.88;100.00;101878.84;4996307;28;20078;-71
2024/02/05 03:47:24;;;;;;;62.55;13.60;;;10.60;99.90;;;10.97;100.00;101879.81;4995675;28;20093;-71
2024/02/05 03:49:53;;;;;;;64.33;15.30;;;10.70;99.90;;;10.90;100.00;101881.50;4995427;28;20129;-71
2024/02/05 03:52:21;;;;;;;72.85;14.32;;;10.70;99.90;;;10.93;100.00;101883.31;4995931;28;20046;-71
2024/02/05 03:54:50;;;;;;;71.00;15.57;;;10.70;99.90;;;10.88;100.00;101885.88;4995259;28;20068;-71
2024/02/05 03:57:20;;;;;;;57.45;14.07;;;10.70;99.90;;;10.86;100.00;101883.22;4995280;28;20125;-71
2024/02/05 03:59:49;;;;;;;62.45;14.30;;;10.60;99.90;;;10.92;100.00;101873.59;4995166;28;20472;-71
2024/02/05 04:02:17;;;;;;;56.80;14.52;;;10.60;99.90;;;10.86;100.00;101870.00;4995331;28;20069;-71
2024/02/05 04:04:47;;;;;;;61.25;13.15;;;10.60;99.90;;;10.97;100.00;101883.38;4995360;28;20096;-71
2024/02/05 04:07:15;;;;;;;53.13;14.37;;;10.70;99.90;;;10.90;100.00;101877.09;4995060;28;20047;-71
2024/02/05 04:09:44;;;;;;;67.40;14.60;;;10.70;99.90;;;10.91;100.00;101883.28;4994281;28;20101;-71
2024/02/05 04:12:12;;;;;;;55.60;12.77;;;10.70;99.90;;;10.90;100.00;101877.09;4994196;28;20416;-71
2024/02/05 04:14:40;;;;;;;66.85;13.20;;;10.70;99.90;;;10.97;100.00;101879.81;4994669;28;20038;-71
2024/02/05 04:17:10;;;;;;;58.10;14.32;;;10.70;99.90;;;11.01;100.00;101885.16;4995159;28;20142;-71
2024/02/05 04:19:43;;;;;;;64.85;13.27;;;10.70;99.90;;;11.03;100.00;101887.81;4994791;28;20046;-71
2024/02/05 04:22:13;;;;;;;69.05;14.35;;;10.80;99.90;;;11.03;100.00;101888.72;4995095;28;20050;-71
2024/02/05 04:24:42;;;;;;;53.63;15.20;;;10.80;99.90;;;11.03;100.00;101872.84;4994715;28;20042;-71
2024/02/05 04:27:10;;;;;;;56.92;13.55;;;10.80;99.90;;;11.05;100.00;101873.75;4994966;28;20034;-71
2024/02/05 04:29:40;;;;;;;56.45;13.55;;;10.80;99.90;;;10.77;100.00;101837.25;4995201;28;20058;-71
2024/02/05 04:32:10;;;;;;;63.38;14.35;;;10.80;99.90;;;10.89;100.00;101845.34;4995193;28;20447;-71
2024/02/05 04:34:39;;;;;;;52.22;12.15;;;10.80;99.90;;;11.10;100.00;101895.84;4994682;28;20042;-71
2024/02/05 04:37:08;;;;;;;73.50;14.82;;;10.80;99.90;;;11.07;100.00;101889.63;4994466;28;20037;-71
2024/02/05 04:39:38;;;;;;;65.47;13.65;;;10.80;99.90;;;11.07;100.00;101885.19;4994620;28;20117;-71
2024/02/05 04:42:06;;;;;;;67.05;14.23;;;10.80;99.90;;;11.03;100.00;101878.13;4994658;28;20048;-71
2024/02/05 04:44:35;;;;;;;58.75;13.27;;;10.80;99.90;;;10.90;100.00;101850.63;4994819;28;20050;-71
2024/02/05 04:47:04;;;;;;;53.70;12.98;;;10.80;99.90;;;11.01;100.00;101874.59;4994313;28;20102;-71
2024/02/05 04:49:32;;;;;;;67.80;13.85;;;10.70;99.90;;;10.85;100.00;101872.63;4994431;28;20042;-71
2024/02/05 04:52:01;;;;;;;59.10;13.05;;;10.70;99.90;;;10.91;100.00;101843.59;4993174;28;20049;-71
2024/02/05 04:54:30;;;;;;;69.55;13.88;;;10.70;99.90;;;10.90;100.00;101847.09;4994092;28;20054;-71
2024/02/05 04:56:59;;;;;;;48.15;11.65;;;10.70;99.90;;;10.80;100.00;101850.53;4994351;28;20054;-71
2024/02/05 04:59:28;;;;;;;54.13;12.57;;;10.60;99.90;;;10.94;100.00;101862.13;4993935;28;20042;-71
2024/02/05 05:01:56;;;;;;;66.10;13.75;;;10.70;99.90;;;10.92;100.00;101845.34;4994042;28;20698;-71
2024/02/05 05:04:25;;;;;;;55.47;12.95;;;10.70;99.90;;;11.01;100.00;101849.84;4993964;28;20038;-71
2024/02/05 05:06:53;;;;;;;67.82;13.23;;;10.80;99.90;;;10.30;100.00;101757.41;4993955;28;20100;-71
2024/02/05 05:09:22;;;;;;;52.05;14.10;;;10.70;99.90;;;10.85;100.00;101856.75;4993877;28;20153;-71
2024/02/05 05:11:50;;;;;;;68.28;14.30;;;10.60;99.90;;;10.76;100.00;101860.19;4993912;28;20451;-71
2024/02/05 05:14:20;;;;;;;59.17;13.07;;;10.50;99.90;;;10.71;100.00;101846.03;4994091;28;20456;-71
2024/02/05 05:16:48;;;;;;;58.67;12.80;;;10.50;99.90;;;10.69;100.00;101849.53;4993807;28;20046;-71
2024/02/05 05:19:17;;;;;;;66.47;15.20;;;10.50;99.90;;;10.67;100.00;101840.69;4992625;28;20387;-71
2024/02/05 05:21:46;;;;;;;62.60;13.55;;;10.40;99.90;;;10.66;100.00;101844.22;4993984;28;20073;-71
2024/02/05 05:24:15;;;;;;;65.57;14.55;;;10.40;99.90;;;10.65;100.00;101834.47;4993608;28;20077;-71
2024/02/05 05:26:43;;;;;;;59.22;12.90;;;10.40;99.90;;;10.59;100.00;101831.75;4993631;28;20109;-71
2024/02/05 05:29:12;;;;;;;64.28;13.48;;;10.40;99.90;;;10.54;100.00;101858.19;4993559;28;20046;-71
2024/02/05 05:31:41;;;;;;;62.90;13.50;;;10.30;99.90;;;10.57;100.00;101874.09;4993557;28;20104;-71
2024/02/05 05:34:10;;;;;;;78.50;14.47;;;10.40;99.90;;;10.58;100.00;101864.41;4993845;28;20050;-71
2024/02/05 05:36:38;;;;;;;60.50;13.93;;;10.40;99.90;;;10.51;100.00;101860.78;4993462;28;20485;-71
2024/02/05 05:39:08;;;;;;;68.53;14.15;;;10.30;99.90;;;10.63;100.00;101865.31;4993633;28;20053;-71
2024/02/05 05:41:36;;;;;;;54.63;13.35;;;10.40;99.90;;;10.63;100.00;101850.34;4994026;28;20046;-71
2024/02/05 05:44:06;;;;;;;63.60;13.73;;;10.40;99.90;;;10.62;100.00;101838.00;4993555;28;20399;-71
2024/02/05 05:46:34;;;;;;;64.80;13.75;;;10.50;99.90;;;10.57;100.00;101850.28;4993367;28;20101;-71
2024/02/05 05:49:04;;;;;;;63.25;13.80;;;10.40;99.90;;;10.63;100.00;101863.56;4993294;28;20065;-71
2024/02/05 05:51:33;;;;;;;69.85;13.82;;;10.40;99.90;;;10.66;100.00;101860.97;4993278;28;20049;-71
2024/02/05 05:54:01;;;;;;;52.50;13.20;;;10.50;99.90;;;10.72;100.00;101876.03;4992225;28;20050;-71
2024/02/05 05:56:30;;;;;;;67.15;13.60;;;10.50;99.90;;;10.77;100.00;101875.22;4992193;28;20042;-71
2024/02/05 05:58:58;;;;;;;58.08;13.73;;;10.50;99.90;;;10.79;100.00;101868.16;4993472;28;20054;-71
2024/02/05 06:01:26;;;;;;;62.40;13.02;;;10.60;99.90;;;10.73;100.00;101872.50;4993085;28;20054;-71
2024/02/05 06:03:55;;;;;;;57.75;12.82;;;10.50;99.90;;;10.76;100.00;101867.25;4992415;28;20100;-71
2024/02/05 06:06:25;;;;;;;70.20;15.05;;;10.50;99.90;;;10.74;100.00;101864.56;4993133;28;20046;-71
2024/02/05 06:08:53;;;;;;;57.97;13.15;;;10.50;99.90;;;10.72;100.00;101870.75;4993071;28;20093;-66
2024/02/05 06:11:21;;;;;;;65.97;12.82;;;10.50;99.90;;;10.80;100.00;101871.72;4993367;28;20495;-69
2024/02/05 06:13:50;;;;;;;63.88;14.70;;;10.60;99.90;;;10.76;100.00;101868.13;4993310;28;20054;-69
2024/02/05 06:16:19;;;;;;;61.08;12.68;;;10.50;99.90;;;10.76;100.00;101876.06;4993693;28;20050;-69
2024/02/05 06:18:48;;;;;;;61.92;13.30;;;10.50;99.90;;;10.76;100.00;101867.25;4993033;28;20050;-69
2024/02/05 06:21:16;;;;;;;59.15;13.95;;;10.50;99.90;;;10.81;100.00;101861.13;4993058;28;20124;-69
2024/02/05 06:23:46;;;;;;;63.42;14.77;;;10.50;99.90;;;10.69;100.00;101853.06;4993724;28;20046;-68
2024/02/05 06:26:15;;;;;;;67.50;13.47;;;10.50;99.90;;;10.69;100.00;101854.81;4993217;28;20057;-66
2024/02/05 06:28:43;;;;;;;64.75;13.88;;;10.50;99.90;;;10.58;100.00;101840.59;4992960;28;20042;-68
2024/02/05 06:31:13;;;;;;;58.80;12.55;;;10.50;99.90;;;10.67;100.00;101862.75;4992897;28;20046;-67
2024/02/05 06:33:42;;;;;;;65.75;13.45;;;10.50;99.90;;;10.63;100.00;101852.09;4993099;28;20061;-67
2024/02/05 06:36:11;;;;;;;61.95;13.48;;;10.50;99.90;;;10.67;100.00;101857.44;4994034;28;20121;-67
2024/02/05 06:38:40;;;;;;;62.33;13.23;;;10.50;99.90;;;10.58;100.00;101867.03;4996840;28;20034;-66
2024/02/05 06:41:10;;;;;;;58.65;12.52;;;10.40;99.90;;;10.68;100.00;101861.84;4995444;28;20054;-67
2024/02/05 06:43:39;;;;;;;55.50;14.13;;;10.40;99.90;;;10.63;100.00;101863.56;4996857;28;20096;-67
2024/02/05 06:46:09;;;;;;;55.93;14.93;;;10.40;99.90;;;10.62;100.00;101852.97;4997193;28;20042;-66
2024/02/05 06:48:38;;;;;;;54.10;14.23;;;10.40;99.90;;;10.58;100.00;101851.16;4996514;28;20042;-67
2024/02/05 06:51:07;;;;;;;61.20;14.18;;;10.40;99.90;;;10.49;100.00;101853.72;4996499;28;20050;-66
2024/02/05 06:53:35;;;;;;;62.05;13.75;;;10.30;99.90;;;10.43;100.00;101840.41;4996609;28;20054;-67
2024/02/05 06:56:04;;;;;;;59.70;14.07;;;10.20;99.90;;;10.26;100.00;101834.91;4996584;28;20399;-67
2024/02/05 06:58:34;;;;;;;58.65;15.15;;;10.20;99.90;;;10.36;100.00;101838.56;4996327;28;20396;-67
2024/02/05 07:01:02;;;;;;;68.55;14.55;;;10.10;99.90;;;10.35;100.00;101839.44;4996751;28;20121;-66
2024/02/05 07:03:31;;;;;;;63.67;14.43;;;10.20;99.90;;;10.34;100.00;101842.94;4996425;28;20407;-66
2024/02/05 07:06:00;;;;;;;57.65;13.40;;;10.10;99.90;;;10.37;100.00;101840.34;4996108;28;20121;-65
2024/02/05 07:08:28;;;;;;;57.28;14.50;;;10.20;99.90;;;10.36;100.00;101846.47;4996069;28;20084;-66
2024/02/05 07:10:56;;;;;;;52.88;13.57;;;10.20;99.90;;;10.31;100.00;101850.84;4994967;28;20404;-66
2024/02/05 07:13:25;;;;;;;62.72;13.32;;;10.10;99.90;;;10.39;100.00;101863.31;4995956;28;20389;-67
2024/02/05 07:15:56;;;;;;;59.53;14.18;;;10.20;99.90;;;10.40;100.00;101858.88;4995850;28;20133;-66
2024/02/05 07:18:25;;;;;;;63.13;14.25;;;10.20;99.90;;;10.40;100.00;101872.09;4995898;28;20042;-66
2024/02/05 07:20:53;;;;;;;62.83;13.98;;;10.20;99.90;;;10.34;100.00;101862.34;4995843;28;20042;-67
2024/02/05 07:23:22;;;;;;;59.70;13.85;;;10.10;99.90;;;10.40;100.00;101858.88;4995856;28;20050;-68
2024/02/05 07:25:50;;;;;;;56.05;13.75;;;10.20;99.90;;;10.42;100.00;101862.44;4995794;28;20496;-66
2024/02/05 07:28:18;;;;;;;55.90;13.02;;;10.20;99.90;;;10.35;100.00;101868.53;4995788;28;20470;-67
2024/02/05 07:30:47;;;;;;;62.70;15.27;;;10.10;99.90;;;10.26;100.00;101847.28;4995947;28;20455;-68
2024/02/05 07:33:17;;;;;;;60.28;13.75;;;10.10;99.90;;;10.21;100.00;101865.72;4995705;28;20049;-67
2024/02/05 07:35:45;;;;;;;62.00;14.63;;;10.00;99.90;;;10.32;100.00;101865.81;4995678;28;20046;-67
2024/02/05 07:38:14;;;;;;;59.22;13.45;;;10.10;99.90;;;10.33;100.00;101868.50;4995883;28;20473;-66
2024/02/05 07:40:42;;;;;;;52.75;13.20;;;10.10;99.90;;;10.30;100.00;101872.88;4995707;28;20065;-68
2024/02/05 07:43:11;;;;;;;67.55;14.95;;;10.10;99.90;;;10.29;100.00;101860.50;4995491;28;20049;-66
2024/02/05 07:45:39;;;;;;;59.33;13.18;;;10.10;99.90;;;10.28;100.00;101856.09;4995383;28;20043;-67
2024/02/05 07:48:10;;;;;;;60.97;14.65;;;10.10;99.90;;;10.22;100.00;101866.59;4995544;28;20061;-67
2024/02/05 07:50:40;;;;;;;59.78;13.63;;;10.00;99.90;;;10.32;100.00;101874.66;4995950;28;20060;-67
2024/02/05 07:53:08;;;;;;;50.33;14.67;;;10.10;99.90;;;10.39;100.00;101870.34;4995635;28;20069;-65
2024/02/05 07:55:39;;;;;;;57.20;14.50;;;10.10;99.90;;;10.37;100.00;101872.06;4995546;28;20285;-69
2024/02/05 07:58:09;;;;;;;64.53;15.55;;;10.10;99.90;;;10.29;100.00;101886.94;4995651;28;20066;-69
2024/02/05 08:00:37;;;;;;;71.07;15.30;;;10.10;99.90;;;10.33;100.00;101879.09;4995299;28;20046;-67
2024/02/05 08:03:06;;;;;;;59.78;13.70;;;10.10;99.90;;;10.28;100.00;101859.63;4995116;28;20052;-68
2024/02/05 08:05:34;;;;;;;69.15;14.88;;;10.10;99.90;;;10.29;100.00;101879.03;4995285;28;20093;-63
2024/02/05 08:08:05;;;;;;;63.97;13.68;;;10.10;99.90;;;10.33;100.00;101880.84;4994991;28;20056;-65
2024/02/05 08:10:35;;;;;;;;;;;10.10;99.90;;;9.87;100.00;101800.91;4994581;28;20530;-66
2024/02/05 08:13:05;;;;;;;58.85;13.10;;;10.20;99.90;;;10.38;100.00;101873.84;4995514;28;19957;-64
2024/02/05 08:15:33;;;;;;;74.43;15.38;;;10.20;99.90;;;10.39;100.00;101891.50;4994846;28;20491;-64
2024/02/05 08:18:02;;;;;;;52.42;14.00;;;10.20;99.90;;;9.88;100.00;101791.22;4994851;28;20069;-65
2024/02/05 08:20:30;;;;;;;64.10;13.57;;;10.20;99.90;;;10.43;100.00;101893.31;4994759;28;20053;-64
2024/02/05 08:22:59;;;;;;;58.38;12.60;;;10.20;99.90;;;10.41;100.00;101869.50;4994854;28;20071;-64
2024/02/05 08:25:30;;;;;;;60.67;13.77;;;10.20;99.90;;;10.34;100.00;101893.19;4994979;28;20054;-68
2024/02/05 08:28:00;;;;;;;53.00;13.43;;;10.20;99.90;;;10.43;100.00;101899.47;4994796;28;20049;-65
2024/02/05 08:30:28;;;;;;;65.50;14.15;;;10.20;99.90;;;10.38;100.00;101887.97;4995151;28;20046;-64
2024/02/05 08:32:57;;;;;;;68.10;15.13;;;10.20;99.90;;;10.35;100.00;101903.81;4992789;28;20448;-64
2024/02/05 08:35:26;;;;;;;51.33;12.52;;;10.20;99.90;;;10.41;100.00;101884.47;4994408;28;20057;-65
2024/02/05 08:37:54;;;;;;;63.10;14.35;;;10.20;99.90;;;10.36;100.00;101886.16;4993151;28;20645;-66
2024/02/05 08:40:23;;;;;;;60.45;13.73;;;10.20;99.90;;;10.36;100.00;101887.06;4992731;28;20476;-67
2024/02/05 08:42:52;;;;;;;74.28;15.27;;;10.20;99.90;;;10.33;100.00;101871.16;4992545;28;20057;-66
2024/02/05 08:45:22;;;;;;;51.07;12.03;;;10.10;99.90;;;10.35;100.00;101868.53;4992849;28;20472;-66
2024/02/05 08:47:52;;;;;;;63.47;13.52;;;10.20;99.90;;;10.39;100.00;101883.56;4992375;28;20412;-66
2024/02/05 08:50:22;;;;;;;63.75;13.27;;;10.20;99.90;;;10.37;100.00;101890.59;4992440;28;20050;-67
2024/02/05 08:52:50;;;;;;;61.53;13.65;;;10.10;99.90;;;10.36;100.00;101850.03;4992289;28;20045;-67
2024/02/05 08:55:19;;;;;;;58.35;12.13;;;10.10;99.90;;;10.31;100.00;101845.56;4992772;28;20054;-67
2024/02/05 08:57:49;;;;;;;60.38;13.63;;;10.10;99.90;;;10.33;100.00;101864.97;4992340;28;20121;-67
2024/02/05 09:00:19;;;;;;;64.13;13.02;;;10.10;99.90;;;10.32;100.00;101850.84;4991811;28;20564;-67
2024/02/05 09:02:50;;;;;;;66.03;13.85;;;10.20;99.90;;;10.36;100.00;101846.47;4992258;28;20038;-67
2024/02/05 09:05:18;;;;;;;56.65;13.38;;;10.20;99.90;;;10.33;100.00;101871.16;4992227;28;20046;-67
2024/02/05 09:07:56;;;;;;;52.65;12.07;;;10.20;99.90;;;10.29;100.00;101863.16;4991011;28;20113;-67
2024/02/05 09:10:25;;;;;;;61.22;11.65;;;10.10;99.90;;;10.25;100.00;101874.56;4991000;28;20068;-67
2024/02/05 09:12:53;;;;;;;63.03;13.15;;;10.10;99.90;;;9.80;100.00;101756.78;4991986;28;20128;-66
2024/02/05 09:15:23;;;;;;;53.55;12.38;;;10.20;99.90;;;10.27;100.00;101864.88;4992009;28;20046;-67
2024/02/05 09:17:51;;;;;;;52.42;12.10;;;10.10;99.90;;;10.30;100.00;101876.38;4992221;28;20096;-67
2024/02/05 09:20:20;;;;;;;54.85;12.52;;;10.10;99.90;;;10.33;100.00;101875.56;4991870;28;20046;-67
2024/02/05 09:22:48;;;;;;;59.60;12.85;;;10.10;99.90;;;10.21;100.00;101867.47;4992368;28;20049;-67
2024/02/05 09:25:17;;;;;;;56.50;13.57;;;10.10;99.90;;;10.19;100.00;101856.88;4992037;28;20050;-67
2024/02/05 09:27:45;;;;;;;55.72;11.55;;;10.00;99.90;;;10.29;100.00;101871.09;4992210;28;20052;-66
2024/02/05 09:30:14;;;;;;;57.67;13.45;;;10.10;99.90;;;10.29;100.00;101868.44;4990697;28;20081;-68
2024/02/05 09:32:44;;;;;;;59.40;13.23;;;10.10;99.90;;;10.28;100.00;101867.53;4990694;28;20575;-67
2024/02/05 09:35:13;;;;;;;57.33;12.17;;;10.20;99.90;;;10.28;100.00;101869.31;4992041;28;20039;-66
2024/02/05 09:37:41;;;;;;;67.38;13.63;;;10.10;99.90;;;10.24;100.00;101867.50;4991513;28;20286;-67
2024/02/05 09:40:10;;;;;;;66.35;12.55;;;10.10;99.90;;;9.56;100.00;101743.22;4990310;28;20632;-67
2024/02/05 09:42:39;;;;;;;59.20;13.35;;;10.10;99.90;;;10.29;100.00;101881.66;4991735;28;20396;-67
2024/02/05 09:45:12;;;;;;;60.47;13.05;;;10.10;99.90;;;10.41;100.00;101895.06;4991478;28;20050;-66
2024/02/05 09:47:42;;;;;;;60.70;12.55;;;10.20;99.90;;;10.32;100.00;101869.38;4991564;28;20496;-66
2024/02/05 09:50:12;;;;;;;58.17;13.30;;;10.20;99.90;;;10.35;100.00;101879.09;4991559;28;20484;-66
2024/02/05 09:52:43;;;;;;;57.25;13.23;;;10.20;99.90;;;10.35;100.00;101877.34;4991727;28;20039;-66
2024/02/05 09:55:11;;;;;;;62.10;12.45;;;10.20;99.90;;;10.28;100.00;101880.78;4991463;28;20073;-67
2024/02/05 09:57:41;;;;;;;54.45;12.43;;;10.10;99.90;;;10.28;100.00;101878.13;4991233;28;20436;-66
2024/02/05 10:00:11;;;;;;;71.45;12.95;;;10.10;99.90;;;10.22;100.00;101872.75;4991585;28;20039;-66
2024/02/05 10:02:40;;;;;;;55.00;12.60;;;10.10;99.90;;;10.24;100.00;101854.28;4991559;28;20117;-66